Sandy, OR

12:54 PM PDT on August 27, 2014 (GMT -0700)
Portland-Troutdale | Change Station
CLOSE
Current Station
Airport
Location: Portland Troutdale,
Elevation: 36 ft
Nearby Weather Stations

Elev 36 ft 45.55 °N, 122.41 °W | Updated 1 hour ago

Clear
Clear
79 °F
Feels Like 79 °F
N
7
Wind Variable Wind from WSW

Today
High -- | Low -- °F
--% Chance of Precip.
Yesterday
High -- | Low -- °F
Precip. -- in
6:24 AM 7:55 PM
Waxing Crescent, 5% visible
Pressure 30.03 in
Visibility 10.0 miles
Clouds Clear
Dew Point 58 °F
Humidity 48%
Rainfall 0.00 in
Snow Depth 0 in
UV 8 out of 12
Pollen 4.00 out of 12
Air Quality Not available.
Flu Activity Not available.
METAR KTTD 271853Z 25006KT 10SM CLR 26/14 A3003 RMK AO2 SLP167 T02610144

More Conditions Fewer Conditions

Pressure 30.03 in
Visibility 10.0 miles
Clouds Clear
Dew Point 58 °F
Humidity 48%
Rainfall 0.00 in
Snow Depth 0 in
UV 8 out of 12
Pollen 4.00 out of 12
Air Quality Not available.
Flu Activity Not available.
METAR KTTD 271853Z 25006KT 10SM CLR 26/14 A3003 RMK AO2 SLP167 T02610144

More Conditions Fewer Conditions

10-Day Weather Forecast

Almanac

Astronomy

Aug. 27, 2014 Rise Set
Actual Time 6:24 AM PDT 7:55 PM PDT
Civil Twilight 5:53 AM PDT 8:26 PM PDT
Nautical Twilight 5:15 AM PDT 9:03 PM PDT
Astronomical Twilight 4:35 AM PDT 9:43 PM PDT
Moon 8:33 AM PDT 8:41 PM PDT
Length of Visible Light 14h 32m
Length of Day
13h 30m
Tomorrow will be 3m 1s shorter.
Waxing Crescent, 5% of the Moon is Illuminated
Today
Waxing Crescent
Sep 2
First Quarter
Sep 8
Full
Sep 15
Last Quarter
Sep 24
New

Today's Extremes

State Highs State Lows

Community

WunderPhotos

Upload Photos

1,747,771 photos uploaded!

Nearby

Snow Depth

Station Depth Elevation
North Fork 0 in 3120 ft
Peavine Ridge 0 in 3500 ft
Clear Lake 1 in 3500 ft
Greenpoint 0 in 3200 ft
Seine Creek 0 in 2000 ft

Earthquake Activity

City Distance Mag. Time & Date
No recent earthquake activity has been reported nearby.
Minimum magnitude displayed is 2.5.

Coastal Water Temperatures

Place Temperature
No Stations Reporting

Nearby Weather Stations